Lockeport, Canada
Current Conditions -  °F | °C
As of 11:00 AM on Saturday 25 Oct 2014 (Local Time) from CYQI Reporting Station
Drizzle Drizzle  
Wind Chill: 44°   Ceiling: 800
Heat Index: 48°   Visibility: 5mi
Dew Point: 46°   Wind: 10mph
Humidity: 93%   Direction: 320°NW
Pressure: 29.6"   Gusts: NA
Location:  43.7°N, 65.12°W
Report Text: CYQI 251400Z 32009KT 5SM -DZ BR OVC008 09/08 A2960 RMK SF8 SLP024
Loading
Personal Weather Stations






























Interactive Weather Map
Tropical Storm Tracking
New forecast layout! Learn more

10-Day Weather Forecast

Advertisements
Track Severe Weather on mobile